createdAt,value
2023-05-22T00:01:49.353Z,87.30
2023-05-22T00:04:21.167Z,88.00
2023-05-22T00:06:49.239Z,88.40
2023-05-22T00:09:18.472Z,88.40
2023-05-22T00:11:47.924Z,88.30
2023-05-22T00:14:15.772Z,88.40
2023-05-22T00:16:43.964Z,88.40
2023-05-22T00:19:13.573Z,87.90
2023-05-22T00:21:41.610Z,88.90
2023-05-22T00:24:10.195Z,88.50
2023-05-22T00:26:38.108Z,88.50
2023-05-22T00:29:07.273Z,89.50
2023-05-22T00:31:35.081Z,89.90
2023-05-22T00:34:02.920Z,90.40
2023-05-22T00:36:30.749Z,90.90
2023-05-22T00:38:58.566Z,92.60
2023-05-22T00:41:26.467Z,91.70
2023-05-22T00:43:54.797Z,91.40
2023-05-22T00:46:24.554Z,91.10
2023-05-22T00:48:53.453Z,91.70
2023-05-22T00:51:22.252Z,92.00
2023-05-22T00:53:50.875Z,91.80
2023-05-22T00:56:19.695Z,91.80
2023-05-22T00:58:47.698Z,92.40
2023-05-22T01:01:16.105Z,93.00
2023-05-22T01:03:46.952Z,92.90
2023-05-22T01:06:15.829Z,92.60
2023-05-22T01:08:44.015Z,93.30
2023-05-22T01:11:17.284Z,92.60
2023-05-22T01:13:56.039Z,91.20
2023-05-22T01:16:31.029Z,91.60
2023-05-22T01:19:11.904Z,92.00
2023-05-22T01:21:48.802Z,92.40
2023-05-22T01:24:54.116Z,91.90
2023-05-22T01:27:43.817Z,91.10
2023-05-22T01:30:35.941Z,92.40
2023-05-22T01:33:11.679Z,92.90
2023-05-22T01:35:41.591Z,92.80
2023-05-22T01:38:10.030Z,93.10
2023-05-22T01:40:38.981Z,92.50
2023-05-22T01:43:07.005Z,92.50
2023-05-22T01:45:35.353Z,91.40
2023-05-22T01:48:03.261Z,90.90
2023-05-22T01:50:32.662Z,91.00
2023-05-22T01:53:08.792Z,90.60
2023-05-22T01:55:45.215Z,90.60
2023-05-22T01:58:22.247Z,90.20
2023-05-22T02:00:54.609Z,90.20
2023-05-22T02:03:28.361Z,92.10
2023-05-22T02:06:00.501Z,91.70
2023-05-22T02:08:29.945Z,90.70
2023-05-22T02:10:58.902Z,90.30
2023-05-22T02:13:27.236Z,90.90
2023-05-22T02:15:57.037Z,91.00
2023-05-22T02:18:30.916Z,91.70
2023-05-22T02:21:00.617Z,91.40
2023-05-22T02:23:29.492Z,91.10
2023-05-22T02:25:57.615Z,91.20
2023-05-22T02:28:25.475Z,90.50
2023-05-22T02:30:53.493Z,90.60
2023-05-22T02:33:21.468Z,90.40
2023-05-22T02:35:49.318Z,90.20
2023-05-22T02:38:18.556Z,90.10
2023-05-22T02:40:47.097Z,89.70
2023-05-22T02:43:14.919Z,89.30
2023-05-22T02:45:42.724Z,89.70
2023-05-22T02:48:11.282Z,89.80
2023-05-22T02:50:39.426Z,89.90
2023-05-22T02:53:08.387Z,89.90
2023-05-22T02:55:37.553Z,90.00
2023-05-22T02:58:05.892Z,89.50
2023-05-22T03:00:33.840Z,89.20
2023-05-22T03:03:01.826Z,88.90
2023-05-22T03:05:29.718Z,89.10
2023-05-22T03:07:58.039Z,89.00
2023-05-22T03:10:25.981Z,88.70
2023-05-22T03:12:55.203Z,88.40
2023-05-22T03:15:23.230Z,88.30
2023-05-22T03:17:51.091Z,88.50
2023-05-22T03:20:18.940Z,88.70
2023-05-22T03:22:46.794Z,88.60
2023-05-22T03:25:14.673Z,88.70
2023-05-22T03:27:42.474Z,88.80
2023-05-22T03:30:12.702Z,88.60
2023-05-22T03:32:40.966Z,88.20
2023-05-22T03:35:09.871Z,87.50
2023-05-22T03:37:37.727Z,87.30
2023-05-22T03:40:06.572Z,87.40
2023-05-22T03:42:34.418Z,87.30
2023-05-22T03:45:02.261Z,87.30
2023-05-22T03:47:31.410Z,86.50
2023-05-22T03:49:59.212Z,86.90
2023-05-22T03:52:26.991Z,87.40
2023-05-22T03:54:54.778Z,87.80
2023-05-22T03:57:22.624Z,87.70
2023-05-22T03:59:50.461Z,87.70
2023-05-22T04:02:18.432Z,87.60
2023-05-22T04:04:47.699Z,88.00
2023-05-22T04:07:18.319Z,88.10
2023-05-22T04:09:46.246Z,88.20
2023-05-22T04:12:14.092Z,87.50
2023-05-22T04:14:41.907Z,88.00
2023-05-22T04:17:11.570Z,88.20
2023-05-22T04:19:39.387Z,88.60
2023-05-22T04:22:08.529Z,88.60
2023-05-22T04:24:36.323Z,88.40
2023-05-22T04:27:04.302Z,88.50
2023-05-22T04:29:32.144Z,88.30
2023-05-22T04:32:00.232Z,88.00
2023-05-22T04:34:28.591Z,87.30
2023-05-22T04:36:56.441Z,87.40
2023-05-22T04:39:26.300Z,87.30
2023-05-22T04:41:54.269Z,87.70
2023-05-22T04:44:22.974Z,88.00
2023-05-22T04:46:52.159Z,87.90
2023-05-22T04:49:20.505Z,86.80
2023-05-22T04:51:48.341Z,86.90
2023-05-22T04:54:16.172Z,87.60
2023-05-22T04:56:45.362Z,87.10
2023-05-22T04:59:16.241Z,86.70
2023-05-22T05:01:45.389Z,86.20
2023-05-22T05:04:13.499Z,85.80
2023-05-22T05:06:41.314Z,86.00
2023-05-22T05:09:09.163Z,85.60
2023-05-22T05:11:36.995Z,85.10
2023-05-22T05:14:06.178Z,82.90
2023-05-22T05:16:34.033Z,81.50
2023-05-22T05:19:02.154Z,77.60
2023-05-22T05:21:30.048Z,76.20
2023-05-22T05:23:57.832Z,76.80
2023-05-22T05:26:27.026Z,76.90
2023-05-22T05:28:56.972Z,76.90
2023-05-22T05:31:26.395Z,77.80
2023-05-22T05:33:56.615Z,78.30
2023-05-22T05:36:25.507Z,78.00
2023-05-22T05:38:54.155Z,79.30
2023-05-22T05:41:22.008Z,77.80
2023-05-22T05:43:49.793Z,76.80
2023-05-22T05:46:17.770Z,76.70
2023-05-22T05:48:46.996Z,76.80
2023-05-22T05:51:14.900Z,75.50
2023-05-22T05:53:42.731Z,74.60
2023-05-22T05:56:10.803Z,74.80
2023-05-22T05:58:38.791Z,74.50
2023-05-22T06:01:06.658Z,74.90
2023-05-22T06:03:34.890Z,74.20
2023-05-22T06:06:05.656Z,73.60
2023-05-22T06:08:34.560Z,72.80
2023-05-22T06:11:03.383Z,71.90
2023-05-22T06:13:31.215Z,69.10
2023-05-22T06:16:01.823Z,67.90
2023-05-22T06:18:32.008Z,65.10
2023-05-22T06:20:59.841Z,65.90
2023-05-22T06:23:29.066Z,63.20
2023-05-22T06:25:57.328Z,62.10
2023-05-22T06:28:25.200Z,62.90
2023-05-22T06:30:53.173Z,61.70
2023-05-22T06:33:21.278Z,60.40
2023-05-22T06:35:49.204Z,58.60
2023-05-22T06:38:17.047Z,57.60
2023-05-22T06:40:46.201Z,57.00
2023-05-22T06:43:14.019Z,57.10
2023-05-22T06:45:41.860Z,59.10
2023-05-22T06:48:09.723Z,61.80
2023-05-22T06:50:37.847Z,63.40
2023-05-22T06:53:06.496Z,64.50
2023-05-22T06:55:34.378Z,64.80
2023-05-22T06:58:03.739Z,64.90
2023-05-22T07:00:31.535Z,64.90
2023-05-22T07:02:59.405Z,64.10
2023-05-22T07:05:27.315Z,64.40
2023-05-22T07:07:55.218Z,64.20
2023-05-22T07:10:24.950Z,63.30
2023-05-22T07:12:52.749Z,63.90
2023-05-22T07:15:21.888Z,64.00
2023-05-22T07:17:49.785Z,63.00
2023-05-22T07:20:18.233Z,63.10
2023-05-22T07:22:46.046Z,62.70
2023-05-22T07:25:13.935Z,62.10
2023-05-22T07:27:41.775Z,61.90
2023-05-22T07:30:10.538Z,58.20
2023-05-22T07:32:39.802Z,56.80
2023-05-22T07:35:08.457Z,56.20
2023-05-22T07:37:36.526Z,58.50
2023-05-22T07:40:05.125Z,62.90
2023-05-22T07:42:33.054Z,64.00
2023-05-22T07:45:01.367Z,64.70
2023-05-22T07:47:29.203Z,66.30
2023-05-22T07:49:58.448Z,62.40
2023-05-22T07:52:26.290Z,63.00
2023-05-22T07:54:54.571Z,62.70
2023-05-22T07:57:22.998Z,63.10
2023-05-22T07:59:50.909Z,63.70
2023-05-22T08:02:18.886Z,64.00
2023-05-22T08:04:48.274Z,61.70
2023-05-22T08:07:17.523Z,61.00
2023-05-22T08:09:46.813Z,59.60
2023-05-22T08:12:14.641Z,60.50
2023-05-22T08:14:42.486Z,60.40
2023-05-22T08:17:10.424Z,57.40
2023-05-22T08:19:38.462Z,55.50
2023-05-22T08:22:06.866Z,56.70
2023-05-22T08:24:36.559Z,60.20
2023-05-22T08:27:05.394Z,60.80
2023-05-22T08:29:33.282Z,62.30
2023-05-22T08:32:01.245Z,59.40
2023-05-22T08:34:29.396Z,59.30
2023-05-22T08:36:57.277Z,57.50
2023-05-22T08:39:25.125Z,56.20
2023-05-22T08:41:54.314Z,56.40
2023-05-22T08:44:22.214Z,55.50
2023-05-22T08:46:52.475Z,57.40
2023-05-22T08:49:23.865Z,56.20
2023-05-22T08:51:56.991Z,53.30
2023-05-22T08:54:27.520Z,53.10
2023-05-22T08:56:57.593Z,53.90
2023-05-22T08:59:25.895Z,54.20
2023-05-22T09:01:54.568Z,54.50
2023-05-22T09:04:24.156Z,54.10
2023-05-22T09:06:52.678Z,54.80
2023-05-22T09:09:20.710Z,56.00
2023-05-22T09:11:48.617Z,53.40
2023-05-22T09:14:17.828Z,53.50
2023-05-22T09:16:46.663Z,54.30
2023-05-22T09:19:14.892Z,53.90
2023-05-22T09:21:44.299Z,51.60
2023-05-22T09:24:12.836Z,53.20
2023-05-22T09:26:41.032Z,51.30
2023-05-22T09:29:09.358Z,53.60
2023-05-22T09:31:44.629Z,52.40
2023-05-22T09:34:15.652Z,50.30
2023-05-22T09:36:43.937Z,49.80
2023-05-22T09:39:11.907Z,48.80
2023-05-22T09:41:40.884Z,49.50
2023-05-22T09:44:14.131Z,47.80
2023-05-22T09:46:45.979Z,50.00
2023-05-22T09:49:16.556Z,50.80
2023-05-22T09:51:47.774Z,49.20
2023-05-22T09:54:17.601Z,49.10
2023-05-22T09:56:50.057Z,49.90
2023-05-22T09:59:23.391Z,50.70
2023-05-22T10:01:53.649Z,50.30
2023-05-22T10:04:23.629Z,51.00
2023-05-22T10:06:53.731Z,50.50
2023-05-22T10:09:25.084Z,50.10
2023-05-22T10:11:56.017Z,48.20
2023-05-22T10:14:24.885Z,47.50
2023-05-22T10:16:55.092Z,48.60
2023-05-22T10:19:27.148Z,47.00
2023-05-22T10:21:57.252Z,47.00
2023-05-22T10:24:26.083Z,47.10
2023-05-22T10:26:55.239Z,46.80
2023-05-22T10:29:30.472Z,46.30
2023-05-22T10:32:07.567Z,47.50
2023-05-22T10:34:44.606Z,47.00
2023-05-22T10:37:28.083Z,50.30
2023-05-22T10:40:02.321Z,49.00
2023-05-22T10:42:31.485Z,48.50
2023-05-22T10:45:01.583Z,48.60
2023-05-22T10:47:30.827Z,48.10
2023-05-22T10:50:08.272Z,46.60
2023-05-22T10:52:36.453Z,48.00
2023-05-22T10:55:07.906Z,46.30
2023-05-22T10:57:37.967Z,45.10
2023-05-22T11:00:10.858Z,46.00
2023-05-22T11:02:44.835Z,45.10
2023-05-22T11:05:35.484Z,45.90
2023-05-22T11:08:38.654Z,46.80
2023-05-22T11:11:14.404Z,47.10
2023-05-22T11:13:43.570Z,47.20
2023-05-22T11:16:12.328Z,46.00
2023-05-22T11:18:41.593Z,46.20
2023-05-22T11:21:13.467Z,46.00
2023-05-22T11:23:42.123Z,46.70
2023-05-22T11:26:22.341Z,47.20
2023-05-22T11:28:53.137Z,47.60
2023-05-22T11:31:23.130Z,46.90
2023-05-22T11:33:52.472Z,46.90
2023-05-22T11:36:21.133Z,47.30
2023-05-22T11:38:49.039Z,47.40
2023-05-22T11:41:17.175Z,45.30
2023-05-22T11:43:45.253Z,45.90
2023-05-22T11:46:14.133Z,47.50
2023-05-22T11:48:43.254Z,46.60
2023-05-22T11:51:12.489Z,44.90
2023-05-22T11:53:42.277Z,44.50
2023-05-22T11:56:10.129Z,44.00
2023-05-22T11:58:37.935Z,44.70
2023-05-22T12:01:06.992Z,44.70
2023-05-22T12:03:34.967Z,44.60
2023-05-22T12:06:03.218Z,44.30
2023-05-22T12:08:32.559Z,42.80
2023-05-22T12:11:00.688Z,43.80
2023-05-22T12:13:30.272Z,45.80
2023-05-22T12:16:00.956Z,47.70
2023-05-22T12:18:36.190Z,46.00
2023-05-22T12:21:07.337Z,46.10
2023-05-22T12:23:36.742Z,45.80
2023-05-22T12:26:09.838Z,44.50
2023-05-22T12:28:39.808Z,43.30
2023-05-22T12:31:07.648Z,44.40
2023-05-22T12:33:35.532Z,45.00
2023-05-22T12:36:09.213Z,46.40
2023-05-22T12:38:39.548Z,47.00
2023-05-22T12:41:07.539Z,45.40
2023-05-22T12:43:35.519Z,42.50
2023-05-22T12:46:03.465Z,44.10
2023-05-22T12:48:31.358Z,42.80
2023-05-22T12:50:59.234Z,41.00
2023-05-22T12:53:27.102Z,42.50
2023-05-22T12:55:56.556Z,44.20
2023-05-22T12:58:24.442Z,44.80
2023-05-22T13:00:52.614Z,45.20
2023-05-22T13:03:20.504Z,46.50
2023-05-22T13:05:48.372Z,48.90
2023-05-22T13:08:16.294Z,51.30
2023-05-22T13:10:44.135Z,53.40
2023-05-22T13:13:14.005Z,55.60
2023-05-22T13:15:42.122Z,58.90
2023-05-22T13:18:10.238Z,63.00
2023-05-22T13:20:38.538Z,66.80
2023-05-22T13:23:06.535Z,69.70
2023-05-22T13:25:34.432Z,70.80
2023-05-22T13:28:02.470Z,74.10
2023-05-22T13:30:32.180Z,75.40
2023-05-22T13:33:00.198Z,77.20
2023-05-22T13:35:28.248Z,76.70
2023-05-22T13:37:56.113Z,76.60
2023-05-22T13:40:24.158Z,76.70
2023-05-22T13:42:53.018Z,77.30
2023-05-22T13:45:21.116Z,75.30
2023-05-22T13:47:50.713Z,76.00
2023-05-22T13:50:18.736Z,74.90
2023-05-22T13:52:46.656Z,76.00
2023-05-22T13:55:14.532Z,76.30
2023-05-22T13:57:42.543Z,75.50
2023-05-22T14:00:11.469Z,75.70
2023-05-22T14:02:39.344Z,77.00
2023-05-22T14:05:09.656Z,77.50
2023-05-22T14:07:37.503Z,77.00
2023-05-22T14:10:05.876Z,76.10
2023-05-22T14:12:33.738Z,77.70
2023-05-22T14:15:02.397Z,77.70
2023-05-22T14:17:30.426Z,77.40
2023-05-22T14:19:59.046Z,76.50
2023-05-22T14:22:28.337Z,75.70
2023-05-22T14:24:56.933Z,75.00
2023-05-22T14:27:24.823Z,76.10
2023-05-22T14:29:52.681Z,74.30
2023-05-22T14:32:20.493Z,73.80
2023-05-22T14:34:48.324Z,73.50
2023-05-22T14:37:16.214Z,74.10
2023-05-22T14:39:45.464Z,74.10
2023-05-22T14:42:13.468Z,74.30
2023-05-22T14:44:41.312Z,73.30
2023-05-22T14:47:09.166Z,73.10
2023-05-22T14:49:37.006Z,73.60
2023-05-22T14:52:04.926Z,74.00
2023-05-22T14:54:32.756Z,73.40
2023-05-22T14:57:01.914Z,73.50
2023-05-22T14:59:29.779Z,73.80
2023-05-22T15:01:57.666Z,71.90
2023-05-22T15:04:25.555Z,71.40
2023-05-22T15:06:53.410Z,72.00
2023-05-22T15:09:21.239Z,70.60
2023-05-22T15:11:50.650Z,70.80
2023-05-22T15:14:21.473Z,72.00
2023-05-22T15:16:50.212Z,71.80
2023-05-22T15:19:18.288Z,73.30
2023-05-22T15:21:46.139Z,72.60
2023-05-22T15:24:14.240Z,73.00
2023-05-22T15:26:42.143Z,74.10
2023-05-22T15:29:09.981Z,73.20
2023-05-22T15:31:39.334Z,73.30
2023-05-22T15:34:07.250Z,73.70
2023-05-22T15:36:37.028Z,74.50
2023-05-22T15:39:05.142Z,76.80
2023-05-22T15:41:33.015Z,78.00
2023-05-22T15:44:01.150Z,77.40
2023-05-22T15:46:29.404Z,76.70
2023-05-22T15:48:58.696Z,75.40
2023-05-22T15:51:26.502Z,75.80
2023-05-22T15:53:54.407Z,74.30
2023-05-22T15:56:23.378Z,74.00
2023-05-22T15:58:51.632Z,74.10
2023-05-22T16:01:19.518Z,73.80
2023-05-22T16:03:47.534Z,73.90
2023-05-22T16:06:16.806Z,73.60
2023-05-22T16:08:44.612Z,73.00
2023-05-22T16:11:12.471Z,72.80
2023-05-22T16:13:40.521Z,72.30
2023-05-22T16:16:08.674Z,71.10
2023-05-22T16:18:36.513Z,70.40
2023-05-22T16:21:04.559Z,70.40
2023-05-22T16:23:33.741Z,70.50
2023-05-22T16:26:01.607Z,71.20
2023-05-22T16:28:29.540Z,70.70
2023-05-22T16:30:57.500Z,71.30
2023-05-22T16:33:25.409Z,69.10
2023-05-22T16:35:53.260Z,69.90
2023-05-22T16:38:21.090Z,70.70
2023-05-22T16:40:50.362Z,69.70
2023-05-22T16:43:18.279Z,68.90
2023-05-22T16:45:50.821Z,69.70
2023-05-22T16:48:18.791Z,69.60
2023-05-22T16:50:46.902Z,70.80
2023-05-22T16:53:16.723Z,72.20
2023-05-22T16:55:44.690Z,72.90
2023-05-22T16:58:14.004Z,73.80
2023-05-22T17:00:42.907Z,73.90
2023-05-22T17:03:11.929Z,73.70
2023-05-22T17:05:40.370Z,73.70
2023-05-22T17:08:08.517Z,73.70
2023-05-22T17:10:36.515Z,73.30
2023-05-22T17:13:04.384Z,72.40
2023-05-22T17:15:33.701Z,72.20
2023-05-22T17:18:01.641Z,72.60
2023-05-22T17:20:29.824Z,72.30
2023-05-22T17:22:57.654Z,73.20
2023-05-22T17:25:25.541Z,73.50
2023-05-22T17:27:53.328Z,73.10
2023-05-22T17:30:21.335Z,72.80
2023-05-22T17:32:53.315Z,72.90
2023-05-22T17:35:21.310Z,73.00
2023-05-22T17:37:49.244Z,72.50
2023-05-22T17:40:18.105Z,72.70
2023-05-22T17:42:45.986Z,72.80
2023-05-22T17:45:13.773Z,72.30
2023-05-22T17:47:41.646Z,72.30
2023-05-22T17:50:12.012Z,72.70
2023-05-22T17:52:40.951Z,72.90
2023-05-22T17:55:09.937Z,73.40
2023-05-22T17:57:37.753Z,74.30
2023-05-22T18:00:09.759Z,73.60
2023-05-22T18:02:37.728Z,74.20
2023-05-22T18:05:07.269Z,74.90
2023-05-22T18:07:36.400Z,76.40
2023-05-22T18:10:05.083Z,77.20
2023-05-22T18:12:32.908Z,77.20
2023-05-22T18:15:00.837Z,77.50
2023-05-22T18:17:28.739Z,77.50
2023-05-22T18:19:56.607Z,78.00
2023-05-22T18:22:25.541Z,77.90
2023-05-22T18:24:54.696Z,77.20
2023-05-22T18:27:22.970Z,77.30
2023-05-22T18:29:51.751Z,77.60
2023-05-22T18:32:19.654Z,77.40
2023-05-22T18:34:48.548Z,78.40
2023-05-22T18:37:16.471Z,78.20
2023-05-22T18:39:44.290Z,78.00
2023-05-22T18:42:13.592Z,78.10
2023-05-22T18:44:41.626Z,79.00
2023-05-22T18:47:09.541Z,80.00
2023-05-22T18:49:37.378Z,80.90
2023-05-22T18:52:05.563Z,80.90
2023-05-22T18:54:33.407Z,81.00
2023-05-22T18:57:01.276Z,81.30
2023-05-22T18:59:30.680Z,81.30
2023-05-22T19:01:58.486Z,81.80
2023-05-22T19:04:26.417Z,81.90
2023-05-22T19:06:54.296Z,81.90
2023-05-22T19:09:22.209Z,82.40
2023-05-22T19:11:50.072Z,83.00
2023-05-22T19:14:18.079Z,84.00
2023-05-22T19:16:47.258Z,84.30
2023-05-22T19:19:15.292Z,85.00
2023-05-22T19:21:43.210Z,84.80
2023-05-22T19:24:11.037Z,84.50
2023-05-22T19:26:38.858Z,84.20
2023-05-22T19:29:06.653Z,84.00
2023-05-22T19:31:35.808Z,83.70
2023-05-22T19:34:05.939Z,83.90
2023-05-22T19:36:34.570Z,83.70
2023-05-22T19:39:02.416Z,83.20
2023-05-22T19:41:30.245Z,82.90
2023-05-22T19:43:58.361Z,82.90
2023-05-22T19:46:26.535Z,82.40
2023-05-22T19:48:54.378Z,82.40
2023-05-22T19:51:23.501Z,82.50
2023-05-22T19:53:51.598Z,83.50
2023-05-22T19:56:19.494Z,83.60
2023-05-22T19:58:47.297Z,83.90
2023-05-22T20:01:15.157Z,84.10
2023-05-22T20:03:43.899Z,84.40
2023-05-22T20:06:12.418Z,84.40
2023-05-22T20:08:42.350Z,84.50
2023-05-22T20:11:10.196Z,84.30
2023-05-22T20:13:38.000Z,84.80
2023-05-22T20:16:11.641Z,85.10
2023-05-22T20:18:41.040Z,85.80
2023-05-22T20:21:09.294Z,86.20
2023-05-22T20:23:37.193Z,86.60
2023-05-22T20:26:06.456Z,86.90
2023-05-22T20:28:34.550Z,87.10
2023-05-22T20:31:02.367Z,87.80
2023-05-22T20:33:30.174Z,88.10
2023-05-22T20:35:58.505Z,88.10
2023-05-22T20:38:28.427Z,88.30
2023-05-22T20:40:58.434Z,88.40
2023-05-22T20:43:30.733Z,88.90
2023-05-22T20:45:58.595Z,89.20
2023-05-22T20:48:26.415Z,89.40
2023-05-22T20:50:54.256Z,89.60
2023-05-22T20:53:22.088Z,89.80
2023-05-22T20:55:52.056Z,89.60
2023-05-22T20:58:22.868Z,89.90
2023-05-22T21:00:52.091Z,89.80
2023-05-22T21:03:20.140Z,89.90
2023-05-22T21:05:47.971Z,90.10
2023-05-22T21:08:15.795Z,90.50
2023-05-22T21:10:43.610Z,90.60
2023-05-22T21:13:11.430Z,90.90
2023-05-22T21:15:39.369Z,90.50
2023-05-22T21:18:08.713Z,90.70
2023-05-22T21:20:36.546Z,90.50
2023-05-22T21:23:04.386Z,90.70
2023-05-22T21:25:32.640Z,90.90
2023-05-22T21:28:01.735Z,90.60
2023-05-22T21:30:29.569Z,91.00
2023-05-22T21:32:57.424Z,90.80
2023-05-22T21:35:26.596Z,91.10
2023-05-22T21:37:54.687Z,91.30
2023-05-22T21:40:22.581Z,91.40
2023-05-22T21:42:50.388Z,91.20
2023-05-22T21:45:18.201Z,91.50
2023-05-22T21:47:46.082Z,91.50
2023-05-22T21:50:13.944Z,91.50
2023-05-22T21:52:44.232Z,91.50
2023-05-22T21:55:12.140Z,91.00
2023-05-22T21:57:39.976Z,91.20
2023-05-22T22:00:09.015Z,91.90
2023-05-22T22:02:37.022Z,91.90
2023-05-22T22:05:05.836Z,92.10
2023-05-22T22:07:33.627Z,92.40
2023-05-22T22:10:02.788Z,92.30
2023-05-22T22:12:30.883Z,92.30
2023-05-22T22:14:58.777Z,92.10
2023-05-22T22:17:26.623Z,91.90
2023-05-22T22:19:56.910Z,92.00
2023-05-22T22:22:25.515Z,91.80
2023-05-22T22:24:53.348Z,91.50
2023-05-22T22:27:22.532Z,92.40
2023-05-22T22:29:50.374Z,92.30
2023-05-22T22:32:18.668Z,92.70
2023-05-22T22:34:46.958Z,92.90
2023-05-22T22:37:14.862Z,92.70
2023-05-22T22:39:42.671Z,91.60
2023-05-22T22:42:10.486Z,91.80
2023-05-22T22:44:39.667Z,92.70
2023-05-22T22:47:08.316Z,92.70
2023-05-22T22:49:37.273Z,93.50
2023-05-22T22:52:05.447Z,93.70
2023-05-22T22:54:33.455Z,93.50
2023-05-22T22:57:01.307Z,94.00
2023-05-22T22:59:29.171Z,94.10
2023-05-22T23:01:58.549Z,94.00
2023-05-22T23:04:28.281Z,94.40
2023-05-22T23:06:57.526Z,94.30
2023-05-22T23:09:25.473Z,94.20
2023-05-22T23:11:53.302Z,94.10
2023-05-22T23:14:21.110Z,95.00
2023-05-22T23:16:48.897Z,96.00
2023-05-22T23:19:18.095Z,97.20
2023-05-22T23:21:46.058Z,98.90
2023-05-22T23:24:13.871Z,99.90
2023-05-22T23:26:41.709Z,99.00
2023-05-22T23:29:09.566Z,96.70
2023-05-22T23:31:37.484Z,95.90
2023-05-22T23:34:05.496Z,96.10
2023-05-22T23:36:34.698Z,96.20
2023-05-22T23:39:02.498Z,95.50
2023-05-22T23:41:30.392Z,95.40
2023-05-22T23:43:58.205Z,95.90
2023-05-22T23:46:26.132Z,96.60
2023-05-22T23:48:53.957Z,96.90
2023-05-22T23:51:21.762Z,97.50
2023-05-22T23:53:51.047Z,96.80
2023-05-22T23:56:18.871Z,96.70
2023-05-22T23:58:46.690Z,97.60
